Time;durP1;ratioP1;P1;durP2;ratioP2;P2;SDS_P1;SDS_P2;PMS_P1;PMS_P2;Temp;Humidity;BMP_temperature;BMP_pressure;BME280_temperature;BME280_humidity;BME280_pressure;Samples;Min_cycle;Max_cycle;Signal;HPM_P1;HPM_P2
2022/05/12 00:02:18;;;;;;;;;3.00;3.00;;;;;;;;5055122;28;45361;-74
2022/05/12 00:04:44;;;;;;;;;3.00;3.00;;;;;;;;5060033;28;45631;-74
2022/05/12 00:07:09;;;;;;;;;5.33;4.00;;;;;;;;5054304;28;45407;-73
2022/05/12 00:09:34;;;;;;;;;5.67;4.00;;;;;;;;5065274;28;48685;-74
2022/05/12 00:12:00;;;;;;;;;6.33;3.67;;;;;;;;5055474;28;45697;-73
2022/05/12 00:14:25;;;;;;;;;4.67;3.00;;;;;;;;5055794;28;45314;-74
2022/05/12 00:16:51;;;;;;;;;7.33;4.00;;;;;;;;5055640;28;45686;-73
2022/05/12 00:19:16;;;;;;;;;4.00;4.00;;;;;;;;5056547;28;45383;-74
2022/05/12 00:21:41;;;;;;;;;8.00;5.33;;;;;;;;5051100;28;45366;-73
2022/05/12 00:24:07;;;;;;;;;10.00;3.00;;;;;;;;5054992;28;45256;-74
2022/05/12 00:26:34;;;;;;;;;5.67;4.00;;;;;;;;5052334;28;46115;-74
2022/05/12 00:29:00;;;;;;;;;5.00;4.00;;;;;;;;5054810;28;45346;-73
2022/05/12 00:31:26;;;;;;;;;6.33;4.00;;;;;;;;5053273;28;46061;-74
2022/05/12 00:33:51;;;;;;;;;3.00;3.00;;;;;;;;5054191;28;45487;-74
2022/05/12 00:36:18;;;;;;;;;6.00;4.00;;;;;;;;5058493;28;45255;-74
2022/05/12 00:38:43;;;;;;;;;4.67;4.33;;;;;;;;5059097;28;47218;-74
2022/05/12 00:41:09;;;;;;;;;5.33;5.00;;;;;;;;5055908;28;45535;-74
2022/05/12 00:43:43;;;;;;;;;6.00;5.00;;;;;;;;5054139;28;45663;-74
2022/05/12 00:46:10;;;;;;;;;3.67;3.67;;;;;;;;5053850;28;45225;-74
2022/05/12 00:48:36;;;;;;;;;5.00;5.00;;;;;;;;5059976;28;45461;-74
2022/05/12 00:51:02;;;;;;;;;8.00;5.33;;;;;;;;5054051;28;45434;-76
2022/05/12 00:53:28;;;;;;;;;4.67;4.33;;;;;;;;5059185;28;45233;-75
2022/05/12 00:55:54;;;;;;;;;4.67;4.00;;;;;;;;5058280;28;45406;-74
2022/05/12 00:58:20;;;;;;;;;7.00;2.00;;;;;;;;5056626;28;45220;-75
2022/05/12 01:00:46;;;;;;;;;5.67;5.00;;;;;;;;5056190;28;45347;-74
2022/05/12 01:03:13;;;;;;;;;5.33;4.67;;;;;;;;5058349;28;45234;-75
2022/05/12 01:05:39;;;;;;;;;7.00;5.00;;;;;;;;5053378;28;46274;-74
2022/05/12 01:08:04;;;;;;;;;7.00;5.33;;;;;;;;5054669;28;48278;-75
2022/05/12 01:10:30;;;;;;;;;8.00;7.00;;;;;;;;5057879;28;45335;-75
2022/05/12 01:12:56;;;;;;;;;7.67;6.33;;;;;;;;5055733;28;45959;-74
2022/05/12 01:15:24;;;;;;;;;6.67;6.00;;;;;;;;5057835;28;45480;-74
2022/05/12 01:17:49;;;;;;;;;6.67;6.67;;;;;;;;5052214;28;45293;-74
2022/05/12 01:20:14;;;;;;;;;6.00;6.00;;;;;;;;5057572;28;45362;-75
2022/05/12 01:22:40;;;;;;;;;9.00;8.00;;;;;;;;5055102;28;45244;-74
2022/05/12 01:25:10;;;;;;;;;9.00;6.33;;;;;;;;5057267;28;47119;-73
2022/05/12 01:27:35;;;;;;;;;8.33;8.00;;;;;;;;5058352;28;46241;-74
2022/05/12 01:30:00;;;;;;;;;11.00;8.00;;;;;;;;5057571;28;45922;-74
2022/05/12 01:32:27;;;;;;;;;8.00;7.33;;;;;;;;5049126;28;45433;-74
2022/05/12 01:34:53;;;;;;;;;10.00;8.33;;;;;;;;5059610;28;45368;-74
2022/05/12 01:37:19;;;;;;;;;10.33;8.00;;;;;;;;5049049;28;46132;-74
2022/05/12 01:39:44;;;;;;;;;8.00;7.00;;;;;;;;5059695;28;45320;-73
2022/05/12 01:42:10;;;;;;;;;5.67;5.00;;;;;;;;5050424;28;45208;-74
2022/05/12 01:44:36;;;;;;;;;6.33;6.33;;;;;;;;5059817;28;45517;-73
2022/05/12 01:47:01;;;;;;;;;12.67;8.33;;;;;;;;5050277;28;45308;-74
2022/05/12 01:49:27;;;;;;;;;8.00;7.00;;;;;;;;5057673;28;45317;-74
2022/05/12 01:51:56;;;;;;;;;6.00;6.00;;;;;;;;5053359;28;45413;-75
2022/05/12 01:54:22;;;;;;;;;8.00;5.00;;;;;;;;5058435;28;45348;-73
2022/05/12 01:56:47;;;;;;;;;4.67;3.00;;;;;;;;5053723;28;45476;-74
2022/05/12 01:59:12;;;;;;;;;3.00;3.00;;;;;;;;5059428;28;45329;-74
2022/05/12 02:01:38;;;;;;;;;5.33;4.33;;;;;;;;5050949;28;45320;-74
2022/05/12 02:04:05;;;;;;;;;4.67;3.00;;;;;;;;5059209;28;45558;-73
2022/05/12 02:06:30;;;;;;;;;4.00;3.67;;;;;;;;5053077;28;46082;-74
2022/05/12 02:08:55;;;;;;;;;2.00;2.00;;;;;;;;5059726;28;45390;-74
2022/05/12 02:11:20;;;;;;;;;2.67;2.67;;;;;;;;5052497;28;45932;-73
2022/05/12 02:13:46;;;;;;;;;1.00;1.00;;;;;;;;5055092;28;45353;-74
2022/05/12 02:16:11;;;;;;;;;3.00;1.00;;;;;;;;5055466;28;45373;-74
2022/05/12 02:18:37;;;;;;;;;2.33;2.00;;;;;;;;5055646;28;45340;-74
2022/05/12 02:21:02;;;;;;;;;0.33;0.33;;;;;;;;5055611;28;45251;-73
2022/05/12 02:23:27;;;;;;;;;4.00;2.00;;;;;;;;5057063;28;45441;-73
2022/05/12 02:25:52;;;;;;;;;4.00;2.00;;;;;;;;5055182;28;47407;-73
2022/05/12 02:28:17;;;;;;;;;2.00;2.00;;;;;;;;5058650;28;45311;-74
2022/05/12 02:30:43;;;;;;;;;1.67;1.67;;;;;;;;5054312;28;45229;-74
2022/05/12 02:33:09;;;;;;;;;2.00;2.00;;;;;;;;5050238;28;45417;-73
2022/05/12 02:35:35;;;;;;;;;1.67;1.33;;;;;;;;5056569;28;46079;-73
2022/05/12 02:38:01;;;;;;;;;2.00;2.00;;;;;;;;5051261;28;45367;-73
2022/05/12 02:40:28;;;;;;;;;2.00;2.00;;;;;;;;5057134;28;45261;-73
2022/05/12 02:42:53;;;;;;;;;2.67;2.00;;;;;;;;5054237;28;45351;-72
2022/05/12 02:45:19;;;;;;;;;2.33;1.33;;;;;;;;5059984;28;47037;-72
2022/05/12 02:47:44;;;;;;;;;3.00;1.00;;;;;;;;5051614;28;45362;-72
2022/05/12 02:50:10;;;;;;;;;3.33;2.00;;;;;;;;5057023;28;45171;-72
2022/05/12 02:52:36;;;;;;;;;2.33;2.00;;;;;;;;5048782;28;47283;-72
2022/05/12 02:55:01;;;;;;;;;7.00;2.00;;;;;;;;5051362;28;47016;-72
2022/05/12 02:57:26;;;;;;;;;2.00;2.00;;;;;;;;5053766;28;45251;-72
2022/05/12 02:59:52;;;;;;;;;2.00;2.00;;;;;;;;5058650;28;45801;-73
2022/05/12 03:02:18;;;;;;;;;4.00;2.67;;;;;;;;5051611;28;45418;-72
2022/05/12 03:04:43;;;;;;;;;2.00;2.00;;;;;;;;5058145;28;45486;-73
2022/05/12 03:07:09;;;;;;;;;5.00;2.00;;;;;;;;5051304;28;48175;-72
2022/05/12 03:09:34;;;;;;;;;2.67;2.33;;;;;;;;5058632;28;45355;-73
2022/05/12 03:11:59;;;;;;;;;3.33;2.67;;;;;;;;5052271;28;45521;-71
2022/05/12 03:14:25;;;;;;;;;1.00;1.00;;;;;;;;5058865;28;46443;-72
2022/05/12 03:16:53;;;;;;;;;3.67;2.00;;;;;;;;5050776;28;45433;-72
2022/05/12 03:19:20;;;;;;;;;2.67;1.67;;;;;;;;5052560;28;45303;-72
2022/05/12 03:21:46;;;;;;;;;1.00;1.00;;;;;;;;5053660;28;45291;-72
2022/05/12 03:24:11;;;;;;;;;3.00;2.00;;;;;;;;5058659;28;45452;-72
2022/05/12 03:26:37;;;;;;;;;2.00;2.00;;;;;;;;5058156;28;45280;-72
2022/05/12 03:29:02;;;;;;;;;2.00;2.00;;;;;;;;5059720;28;45264;-73
2022/05/12 03:31:27;;;;;;;;;3.00;2.00;;;;;;;;5053415;28;45493;-73
2022/05/12 03:33:52;;;;;;;;;2.00;2.00;;;;;;;;5055802;28;45296;-73
2022/05/12 03:36:18;;;;;;;;;5.00;3.00;;;;;;;;5054817;28;45268;-74
2022/05/12 03:38:43;;;;;;;;;3.33;3.00;;;;;;;;5056147;28;45383;-72
2022/05/12 03:41:08;;;;;;;;;1.00;1.00;;;;;;;;5055247;28;45298;-72
2022/05/12 03:46:18;;;;;;;;;3.00;1.67;;;;;;;;5058705;28;45404;-71
2022/05/12 03:48:43;;;;;;;;;1.67;1.33;;;;;;;;5060394;28;45472;-72
2022/05/12 03:51:09;;;;;;;;;5.33;2.33;;;;;;;;5058323;28;45371;-72
2022/05/12 03:53:35;;;;;;;;;4.00;2.00;;;;;;;;5060515;28;45112;-73
2022/05/12 03:56:00;;;;;;;;;2.00;2.00;;;;;;;;5058707;28;45278;-73
2022/05/12 03:58:26;;;;;;;;;2.33;2.00;;;;;;;;5060543;28;45560;-73
2022/05/12 04:00:52;;;;;;;;;2.67;2.00;;;;;;;;5058194;28;45347;-72
2022/05/12 04:03:17;;;;;;;;;5.67;3.00;;;;;;;;5059806;28;45364;-73
2022/05/12 04:05:43;;;;;;;;;3.00;3.00;;;;;;;;5057830;28;45249;-73
2022/05/12 04:08:08;;;;;;;;;3.67;3.00;;;;;;;;5060442;28;45329;-73
2022/05/12 04:10:33;;;;;;;;;1.67;1.00;;;;;;;;5058412;28;45334;-73
2022/05/12 04:12:58;;;;;;;;;2.00;2.00;;;;;;;;5060576;28;45348;-72
2022/05/12 04:15:24;;;;;;;;;2.67;2.00;;;;;;;;5058384;28;45199;-73
2022/05/12 04:18:03;;;;;;;;;3.33;3.00;;;;;;;;5057676;28;45304;-72
2022/05/12 04:20:29;;;;;;;;;2.00;2.00;;;;;;;;5059244;28;45580;-72
2022/05/12 04:22:54;;;;;;;;;5.67;3.67;;;;;;;;5056474;28;46551;-72
2022/05/12 04:25:20;;;;;;;;;2.67;2.00;;;;;;;;5058733;28;45387;-71
2022/05/12 04:27:45;;;;;;;;;2.33;2.00;;;;;;;;5059019;28;45692;-71
2022/05/12 04:30:11;;;;;;;;;4.00;2.00;;;;;;;;5059317;28;45435;-72
2022/05/12 04:32:37;;;;;;;;;4.75;4.75;;;;;;;;5050648;28;46265;-72
2022/05/12 04:35:15;;;;;;;;;3.00;2.00;;;;;;;;5058351;28;45535;-72
2022/05/12 04:37:44;;;;;;;;;3.00;3.00;;;;;;;;5052543;28;45449;-72
2022/05/12 04:40:15;;;;;;;;;5.67;3.00;;;;;;;;5057971;28;45974;-72
2022/05/12 04:42:41;;;;;;;;;5.00;3.00;;;;;;;;5050813;28;48474;-74
2022/05/12 04:45:07;;;;;;;;;3.00;2.00;;;;;;;;5052986;28;46352;-74
2022/05/12 04:47:33;;;;;;;;;3.33;2.67;;;;;;;;5047708;28;45182;-74
2022/05/12 04:49:58;;;;;;;;;3.00;3.00;;;;;;;;5053513;28;45327;-75
2022/05/12 04:52:24;;;;;;;;;4.50;3.25;;;;;;;;5051894;28;47189;-73
2022/05/12 04:54:50;;;;;;;;;4.33;2.67;;;;;;;;5060443;28;45375;-74
2022/05/12 04:57:15;;;;;;;;;6.00;4.00;;;;;;;;5055825;28;45408;-74
2022/05/12 04:59:40;;;;;;;;;2.00;2.00;;;;;;;;5041655;28;45458;-73
2022/05/12 05:02:05;;;;;;;;;4.00;3.00;;;;;;;;5077813;27;46958;-73
2022/05/12 05:04:31;;;;;;;;;5.67;2.00;;;;;;;;5059093;28;45495;-73
2022/05/12 05:06:56;;;;;;;;;6.00;4.67;;;;;;;;5056238;28;45400;-74
2022/05/12 05:09:22;;;;;;;;;2.33;2.33;;;;;;;;5059566;28;45509;-74
2022/05/12 05:11:47;;;;;;;;;5.00;3.00;;;;;;;;5078692;27;48260;-72
2022/05/12 05:14:12;;;;;;;;;3.67;3.00;;;;;;;;5059153;28;45327;-75
2022/05/12 05:16:37;;;;;;;;;3.33;3.00;;;;;;;;5056777;28;45428;-74
2022/05/12 05:19:02;;;;;;;;;4.00;2.33;;;;;;;;5057587;28;47118;-73
2022/05/12 05:21:28;;;;;;;;;2.00;2.00;;;;;;;;5057445;28;46610;-73
2022/05/12 05:23:53;;;;;;;;;3.00;3.00;;;;;;;;5058276;28;45384;-73
2022/05/12 05:26:18;;;;;;;;;3.00;3.00;;;;;;;;5057287;28;45557;-73
2022/05/12 05:28:43;;;;;;;;;4.67;3.00;;;;;;;;5058323;28;46402;-73
2022/05/12 05:31:09;;;;;;;;;4.33;3.67;;;;;;;;5057197;28;46201;-72
2022/05/12 05:33:34;;;;;;;;;4.00;3.00;;;;;;;;5058685;28;45364;-71
2022/05/12 05:35:59;;;;;;;;;5.50;3.25;;;;;;;;5057415;28;45362;-73
2022/05/12 05:38:25;;;;;;;;;4.75;3.25;;;;;;;;5050725;28;45309;-73
2022/05/12 05:40:51;;;;;;;;;3.00;3.00;;;;;;;;5057193;28;46211;-71
2022/05/12 05:43:16;;;;;;;;;4.25;2.00;;;;;;;;5051861;28;45613;-73
2022/05/12 05:45:41;;;;;;;;;2.50;2.25;;;;;;;;5055820;28;45227;-73
2022/05/12 05:48:07;;;;;;;;;4.00;3.00;;;;;;;;5054685;28;45494;-73
2022/05/12 05:53:24;;;;;;;;;2.00;2.00;;;;;;;;5058383;28;45426;-73
2022/05/12 05:55:49;;;;;;;;;5.00;3.33;;;;;;;;5054361;28;45447;-73
2022/05/12 05:58:14;;;;;;;;;3.67;3.00;;;;;;;;5057103;28;46075;-76
2022/05/12 06:00:43;;;;;;;;;3.67;3.00;;;;;;;;5055274;28;45518;-72
2022/05/12 06:03:09;;;;;;;;;4.75;4.50;;;;;;;;5049498;28;46013;-73
2022/05/12 06:05:35;;;;;;;;;2.33;2.33;;;;;;;;5056691;28;45435;-74
2022/05/12 06:08:00;;;;;;;;;5.50;4.00;;;;;;;;5050515;28;45887;-73
2022/05/12 06:10:25;;;;;;;;;3.00;3.00;;;;;;;;5056901;28;45449;-72
2022/05/12 06:12:51;;;;;;;;;7.25;4.50;;;;;;;;5050224;28;45509;-73
2022/05/12 06:15:16;;;;;;;;;5.67;3.33;;;;;;;;5055976;28;45413;-73
2022/05/12 06:17:41;;;;;;;;;3.67;3.00;;;;;;;;5049632;28;45293;-74
2022/05/12 06:20:08;;;;;;;;;2.67;2.67;;;;;;;;5054734;28;45437;-73
2022/05/12 06:22:33;;;;;;;;;4.00;2.67;;;;;;;;5056742;28;45519;-72
2022/05/12 06:24:59;;;;;;;;;4.00;2.33;;;;;;;;5058404;28;45430;-73
2022/05/12 06:27:24;;;;;;;;;3.00;3.00;;;;;;;;5054711;28;45638;-73
2022/05/12 06:29:49;;;;;;;;;4.67;3.00;;;;;;;;5058685;28;46233;-72
2022/05/12 06:32:15;;;;;;;;;3.67;3.67;;;;;;;;5055626;28;45374;-72
2022/05/12 06:34:46;;;;;;;;;7.33;4.00;;;;;;;;5058011;28;45331;-72
2022/05/12 06:37:12;;;;;;;;;5.00;3.00;;;;;;;;5056245;28;45416;-72
2022/05/12 06:39:37;;;;;;;;;5.67;4.67;;;;;;;;5056501;28;45691;-72
2022/05/12 06:42:03;;;;;;;;;5.33;4.33;;;;;;;;5079851;27;46058;-72
2022/05/12 06:44:29;;;;;;;;;5.00;3.33;;;;;;;;5056866;28;45243;-72
2022/05/12 06:46:55;;;;;;;;;5.00;3.00;;;;;;;;5056086;28;45494;-72
2022/05/12 06:49:20;;;;;;;;;6.00;3.33;;;;;;;;5076619;27;46111;-72
2022/05/12 06:51:45;;;;;;;;;5.00;4.00;;;;;;;;5049857;28;45347;-72
2022/05/12 06:54:11;;;;;;;;;3.00;3.00;;;;;;;;5056359;28;45374;-72
2022/05/12 06:56:36;;;;;;;;;4.00;3.00;;;;;;;;5049026;28;45424;-73
2022/05/12 06:59:02;;;;;;;;;5.33;5.33;;;;;;;;5060519;28;46069;-72
2022/05/12 07:01:27;;;;;;;;;4.00;3.00;;;;;;;;5055230;28;45153;-73
2022/05/12 07:03:53;;;;;;;;;4.00;3.00;;;;;;;;5061065;28;45378;-73
2022/05/12 07:06:18;;;;;;;;;6.00;5.00;;;;;;;;5049657;28;46026;-75
2022/05/12 07:08:43;;;;;;;;;6.33;4.67;;;;;;;;5061047;28;45309;-76
2022/05/12 07:11:10;;;;;;;;;6.67;4.00;;;;;;;;5055753;28;45423;-75
2022/05/12 07:13:35;;;;;;;;;7.00;4.33;;;;;;;;5058087;28;45351;-75
2022/05/12 07:16:01;;;;;;;;;7.00;5.00;;;;;;;;5056645;28;45501;-75
2022/05/12 07:18:26;;;;;;;;;9.00;5.33;;;;;;;;5058385;28;45457;-75
2022/05/12 07:26:40;;;;;;;;;6.67;5.33;;;;;;;;5057961;28;45765;-75
2022/05/12 07:29:10;;;;;;;;;6.33;3.00;;;;;;;;5060776;28;45374;-75
2022/05/12 07:31:36;;;;;;;;;4.33;4.00;;;;;;;;5055337;28;45283;-75
2022/05/12 07:34:01;;;;;;;;;5.67;4.00;;;;;;;;5056505;28;45371;-75
2022/05/12 07:36:41;;;;;;;;;4.33;3.00;;;;;;;;5056673;28;45458;-75
2022/05/12 07:39:06;;;;;;;;;6.67;3.67;;;;;;;;5057009;28;47023;-75
2022/05/12 07:41:32;;;;;;;;;4.00;2.67;;;;;;;;5050653;28;45994;-75
2022/05/12 07:43:58;;;;;;;;;5.33;3.33;;;;;;;;5058487;28;45333;-75
2022/05/12 07:46:25;;;;;;;;;3.00;2.00;;;;;;;;5054768;28;45377;-75
2022/05/12 07:48:50;;;;;;;;;2.00;2.00;;;;;;;;5060176;28;47087;-75
2022/05/12 07:51:16;;;;;;;;;3.67;3.00;;;;;;;;5054788;28;45426;-75
2022/05/12 07:53:41;;;;;;;;;3.33;2.00;;;;;;;;5061348;28;45300;-75
2022/05/12 07:56:07;;;;;;;;;1.67;1.67;;;;;;;;5054794;28;45643;-75
2022/05/12 07:58:32;;;;;;;;;1.33;1.33;;;;;;;;5058957;28;45437;-75
2022/05/12 08:00:58;;;;;;;;;1.67;1.67;;;;;;;;5055785;28;45272;-75
2022/05/12 08:03:23;;;;;;;;;4.67;2.00;;;;;;;;5059102;28;45166;-75
2022/05/12 08:05:49;;;;;;;;;1.00;1.00;;;;;;;;5056864;28;45173;-75
2022/05/12 08:08:16;;;;;;;;;3.33;2.00;;;;;;;;5058504;28;46344;-75
2022/05/12 08:10:41;;;;;;;;;2.00;2.00;;;;;;;;5056934;28;45371;-75
2022/05/12 08:13:14;;;;;;;;;3.67;2.00;;;;;;;;5054450;28;45315;-75
2022/05/12 08:15:40;;;;;;;;;1.00;1.00;;;;;;;;5058097;28;45683;-75
2022/05/12 08:18:05;;;;;;;;;3.33;1.67;;;;;;;;5055836;28;45181;-75
2022/05/12 08:20:30;;;;;;;;;3.00;1.00;;;;;;;;5058518;28;45333;-75
2022/05/12 08:22:56;;;;;;;;;1.00;1.00;;;;;;;;5058727;28;45299;-75
2022/05/12 08:25:21;;;;;;;;;1.33;1.33;;;;;;;;5058995;28;45937;-75
2022/05/12 08:27:47;;;;;;;;;2.00;2.00;;;;;;;;5049151;28;45226;-76
2022/05/12 08:30:15;;;;;;;;;4.33;2.00;;;;;;;;5060155;28;45312;-76
2022/05/12 08:32:41;;;;;;;;;0.75;0.50;;;;;;;;5051135;28;45280;-75
2022/05/12 08:35:06;;;;;;;;;3.25;1.00;;;;;;;;5059570;28;45414;-75
2022/05/12 08:37:31;;;;;;;;;5.00;1.00;;;;;;;;5054101;28;45877;-76
2022/05/12 08:39:57;;;;;;;;;0.50;0.50;;;;;;;;5060618;28;45249;-75
2022/05/12 08:42:26;;;;;;;;;3.00;1.25;;;;;;;;5054737;28;45279;-75
2022/05/12 08:44:51;;;;;;;;;1.00;1.00;;;;;;;;5060306;28;45481;-75
2022/05/12 08:47:23;;;;;;;;;2.00;1.00;;;;;;;;5053477;28;45986;-75
2022/05/12 08:49:52;;;;;;;;;1.50;1.50;;;;;;;;5060291;28;45142;-75
2022/05/12 08:52:22;;;;;;;;;1.75;1.75;;;;;;;;5053496;28;45305;-74
2022/05/12 08:54:53;;;;;;;;;2.00;2.00;;;;;;;;5060207;28;45471;-75
2022/05/12 08:57:31;;;;;;;;;2.25;1.00;;;;;;;;5054881;28;45510;-74
2022/05/12 08:59:57;;;;;;;;;2.25;2.25;;;;;;;;5060203;28;45289;-75
2022/05/12 09:02:37;;;;;;;;;2.00;2.00;;;;;;;;5053410;28;45222;-75
2022/05/12 09:05:13;;;;;;;;;1.00;1.00;;;;;;;;5059492;28;45302;-75
2022/05/12 09:08:02;;;;;;;;;1.25;1.25;;;;;;;;5053986;28;47048;-75
2022/05/12 09:10:45;;;;;;;;;2.25;1.00;;;;;;;;5042387;28;45276;-74
2022/05/12 09:13:29;;;;;;;;;2.00;0.50;;;;;;;;5067624;28;45481;-75
2022/05/12 09:16:17;;;;;;;;;1.00;1.00;;;;;;;;5055363;28;45585;-75
2022/05/12 09:18:43;;;;;;;;;1.50;1.50;;;;;;;;5052641;28;47571;-75
2022/05/12 09:21:17;;;;;;;;;0.50;0.50;;;;;;;;5055829;28;45243;-75
2022/05/12 09:23:43;;;;;;;;;2.75;2.00;;;;;;;;5050762;28;45531;-75
2022/05/12 09:26:26;;;;;;;;;2.00;1.00;;;;;;;;5057517;28;45413;-75
2022/05/12 09:28:53;;;;;;;;;2.50;0.50;;;;;;;;5050739;28;47604;-75
2022/05/12 09:31:19;;;;;;;;;2.25;1.00;;;;;;;;5056053;28;45468;-75
2022/05/12 09:33:46;;;;;;;;;1.00;0.50;;;;;;;;5052278;28;45234;-75
2022/05/12 09:36:16;;;;;;;;;2.25;1.75;;;;;;;;5057315;28;45481;-75
2022/05/12 09:38:44;;;;;;;;;0.75;0.75;;;;;;;;5053186;28;45426;-74
2022/05/12 09:41:14;;;;;;;;;0.50;0.25;;;;;;;;5053924;28;45280;-75
2022/05/12 09:43:39;;;;;;;;;2.25;1.75;;;;;;;;5054237;28;45396;-75
2022/05/12 09:46:18;;;;;;;;;2.00;2.00;;;;;;;;5051106;28;46867;-75
2022/05/12 09:48:45;;;;;;;;;3.00;1.25;;;;;;;;5055334;28;45434;-75
2022/05/12 09:51:21;;;;;;;;;3.00;1.00;;;;;;;;5086384;27;45585;-75
2022/05/12 09:53:47;;;;;;;;;0.75;0.75;;;;;;;;5057451;28;45402;-74
2022/05/12 09:56:28;;;;;;;;;2.75;2.00;;;;;;;;5052606;28;45226;-74
2022/05/12 09:59:17;;;;;;;;;1.00;1.00;;;;;;;;5052048;28;46887;-74
2022/05/12 10:01:53;;;;;;;;;2.25;0.50;;;;;;;;5043832;28;45512;-75
2022/05/12 10:07:59;;;;;;;;;1.00;1.00;;;;;;;;5052453;28;45508;-74
2022/05/12 10:10:21;;;;;;;;;1.25;1.00;;;;;;;;5038232;28;45284;-74
2022/05/12 10:13:08;;;;;;;;;1.00;1.00;;;;;;;;5082808;27;45251;-74
2022/05/12 10:15:38;;;;;;;;;2.25;1.25;;;;;;;;5056897;28;45172;-75
2022/05/12 10:18:03;;;;;;;;;3.00;1.50;;;;;;;;5054154;28;45399;-75
2022/05/12 10:20:29;;;;;;;;;1.75;1.00;;;;;;;;5056829;28;45640;-74
2022/05/12 10:22:59;;;;;;;;;2.25;1.00;;;;;;;;5056759;28;45379;-75
2022/05/12 10:25:33;;;;;;;;;2.00;0.50;;;;;;;;5055378;28;45347;-72
2022/05/12 10:28:14;;;;;;;;;1.00;1.00;;;;;;;;5050012;28;45699;-70
2022/05/12 10:30:45;;;;;;;;;1.00;0.25;;;;;;;;5056450;28;45382;-72
2022/05/12 10:33:17;;;;;;;;;0.00;0.00;;;;;;;;5050173;28;45463;-71
2022/05/12 10:35:52;;;;;;;;;1.50;1.50;;;;;;;;5056470;28;45594;-70
2022/05/12 10:38:23;;;;;;;;;1.50;0.75;;;;;;;;5056008;28;45556;-71
2022/05/12 10:40:52;;;;;;;;;1.25;0.25;;;;;;;;5054852;28;45614;-70
2022/05/12 10:43:36;;;;;;;;;1.00;1.00;;;;;;;;5053529;28;45283;-71
2022/05/12 10:46:18;;;;;;;;;2.50;2.50;;;;;;;;5053267;28;45419;-71
2022/05/12 10:49:03;;;;;;;;;1.00;1.00;;;;;;;;5055344;28;45551;-71
2022/05/12 10:51:28;;;;;;;;;0.75;0.25;;;;;;;;5055455;28;46020;-71
2022/05/12 10:54:10;;;;;;;;;1.00;1.00;;;;;;;;5057132;28;45475;-71
2022/05/12 10:56:40;;;;;;;;;1.00;1.00;;;;;;;;5056339;28;45373;-71
2022/05/12 10:59:18;;;;;;;;;0.75;0.75;;;;;;;;5053772;28;47464;-72
2022/05/12 11:01:46;;;;;;;;;2.00;1.00;;;;;;;;5049943;28;47618;-72
2022/05/12 11:04:14;;;;;;;;;1.00;1.00;;;;;;;;5052223;28;45265;-72
2022/05/12 11:06:41;;;;;;;;;1.00;1.00;;;;;;;;5051956;28;45453;-72
2022/05/12 11:09:10;;;;;;;;;2.75;1.75;;;;;;;;5056489;28;45457;-72
2022/05/12 11:11:41;;;;;;;;;1.00;1.00;;;;;;;;5048133;28;47002;-71
2022/05/12 11:14:10;;;;;;;;;1.00;0.75;;;;;;;;5050044;28;45429;-71
2022/05/12 11:16:38;;;;;;;;;1.75;1.00;;;;;;;;5053842;28;45346;-72
2022/05/12 11:19:05;;;;;;;;;2.25;1.00;;;;;;;;5056033;28;46415;-72
2022/05/12 11:21:30;;;;;;;;;1.00;1.00;;;;;;;;5054879;28;45441;-72
2022/05/12 11:24:03;;;;;;;;;1.75;1.75;;;;;;;;5056833;28;45413;-72
2022/05/12 11:26:38;;;;;;;;;1.50;0.00;;;;;;;;5053590;28;45398;-72
2022/05/12 11:29:41;;;;;;;;;2.75;1.25;;;;;;;;5039507;28;46542;-72
2022/05/12 11:32:15;;;;;;;;;2.00;0.00;;;;;;;;5053869;28;46194;-72
2022/05/12 11:34:42;;;;;;;;;1.40;0.40;;;;;;;;5055539;28;45299;-72
2022/05/12 11:37:26;;;;;;;;;0.00;0.00;;;;;;;;5056133;28;45438;-72
2022/05/12 11:39:54;;;;;;;;;1.00;0.25;;;;;;;;5054093;28;45318;-72
2022/05/12 11:45:49;;;;;;;;;0.80;0.80;;;;;;;;5057937;28;45271;-72
2022/05/12 11:48:20;;;;;;;;;2.50;0.75;;;;;;;;5055890;28;45378;-72
2022/05/12 11:50:52;;;;;;;;;2.00;0.75;;;;;;;;5058927;28;45278;-72
2022/05/12 11:53:24;;;;;;;;;1.00;0.00;;;;;;;;5060074;28;45305;-72
2022/05/12 11:55:52;;;;;;;;;0.80;0.80;;;;;;;;5057997;28;45287;-72
2022/05/12 11:58:28;;;;;;;;;2.20;1.00;;;;;;;;5053007;28;45371;-72
2022/05/12 12:00:54;;;;;;;;;1.25;1.25;;;;;;;;5056938;28;45349;-72
2022/05/12 12:03:19;;;;;;;;;1.00;1.00;;;;;;;;5057835;28;45328;-72
2022/05/12 12:05:51;;;;;;;;;2.00;0.75;;;;;;;;5056750;28;45470;-72
2022/05/12 12:08:31;;;;;;;;;1.25;1.00;;;;;;;;5058050;28;45508;-72
2022/05/12 12:11:15;;;;;;;;;2.00;2.00;;;;;;;;5053897;28;46162;-72
2022/05/12 12:13:43;;;;;;;;;0.50;0.25;;;;;;;;5052145;28;45385;-72
2022/05/12 12:16:12;;;;;;;;;3.80;0.40;;;;;;;;5056134;27;45260;-71
2022/05/12 12:18:38;;;;;;;;;2.00;0.75;;;;;;;;5049874;28;45306;-72
2022/05/12 12:21:22;;;;;;;;;0.75;0.75;;;;;;;;5057383;28;46163;-72
2022/05/12 12:24:08;;;;;;;;;1.25;1.25;;;;;;;;5058983;28;45597;-72
2022/05/12 12:26:36;;;;;;;;;1.80;1.80;;;;;;;;5057183;28;45404;-72
2022/05/12 12:29:17;;;;;;;;;1.00;1.00;;;;;;;;5058701;28;45303;-72
2022/05/12 12:31:44;;;;;;;;;2.00;1.75;;;;;;;;5053126;28;46959;-72
2022/05/12 12:34:12;;;;;;;;;3.50;1.00;;;;;;;;5054435;28;46379;-72
2022/05/12 12:36:43;;;;;;;;;0.20;0.20;;;;;;;;5053811;28;45271;-72
2022/05/12 12:39:11;;;;;;;;;2.00;1.00;;;;;;;;5057642;28;45384;-71
2022/05/12 12:41:38;;;;;;;;;0.50;0.50;;;;;;;;5054840;28;45363;-72
2022/05/12 12:44:14;;;;;;;;;1.75;1.75;;;;;;;;5058815;28;46817;-72
2022/05/12 12:46:58;;;;;;;;;0.25;0.25;;;;;;;;5053885;28;48108;-71
2022/05/12 12:49:25;;;;;;;;;2.75;1.75;;;;;;;;5051054;28;45234;-72
2022/05/12 12:52:03;;;;;;;;;1.00;1.00;;;;;;;;5053473;27;45825;-72
2022/05/12 12:57:15;;;;;;;;;1.20;1.00;;;;;;;;5053289;28;45347;-72
2022/05/12 12:59:48;;;;;;;;;1.00;1.00;;;;;;;;5061065;28;45471;-72
2022/05/12 13:02:32;;;;;;;;;1.00;1.00;;;;;;;;5053864;28;45462;-72
2022/05/12 13:05:01;;;;;;;;;3.00;1.25;;;;;;;;5056088;28;46170;-72
2022/05/12 13:07:30;;;;;;;;;1.00;1.00;;;;;;;;5052596;28;45399;-72
2022/05/12 13:09:56;;;;;;;;;1.25;1.25;;;;;;;;5058129;28;45336;-71
2022/05/12 13:12:24;;;;;;;;;2.00;1.25;;;;;;;;5049984;28;46176;-72
2022/05/12 13:14:51;;;;;;;;;2.50;0.25;;;;;;;;5056249;28;48157;-72
2022/05/12 13:17:18;;;;;;;;;1.00;1.00;;;;;;;;5056934;28;45354;-71
2022/05/12 13:19:43;;;;;;;;;0.50;0.50;;;;;;;;5057933;28;45233;-71
2022/05/12 13:22:09;;;;;;;;;3.50;1.00;;;;;;;;5056970;28;45720;-71
2022/05/12 13:24:36;;;;;;;;;1.25;1.25;;;;;;;;5058911;28;45273;-71
2022/05/12 13:27:04;;;;;;;;;1.00;1.00;;;;;;;;5050750;28;45406;-72
2022/05/12 13:29:30;;;;;;;;;2.50;1.00;;;;;;;;5058280;28;45477;-71
2022/05/12 13:32:00;;;;;;;;;0.75;0.50;;;;;;;;5051621;28;45481;-71
2022/05/12 13:34:30;;;;;;;;;1.00;1.00;;;;;;;;5056998;28;49080;-71
2022/05/12 13:36:58;;;;;;;;;1.25;1.00;;;;;;;;5053357;28;45409;-70
2022/05/12 13:39:40;;;;;;;;;1.25;1.25;;;;;;;;5059507;28;45260;-71
2022/05/12 13:42:06;;;;;;;;;1.50;1.50;;;;;;;;5053152;28;45544;-71
2022/05/12 13:44:36;;;;;;;;;1.50;1.00;;;;;;;;5059752;28;46469;-71
2022/05/12 13:47:04;;;;;;;;;0.25;0.25;;;;;;;;5052675;28;45358;-72
2022/05/12 13:49:39;;;;;;;;;5.25;1.00;;;;;;;;5059057;28;45369;-72
2022/05/12 13:52:11;;;;;;;;;1.25;1.00;;;;;;;;5083397;27;46073;-71
2022/05/12 13:54:38;;;;;;;;;1.00;1.00;;;;;;;;5059096;28;45417;-73
2022/05/12 13:57:19;;;;;;;;;0.80;0.80;;;;;;;;5053070;28;45497;-72
2022/05/12 13:59:56;;;;;;;;;1.25;1.25;;;;;;;;5057930;28;45311;-72
2022/05/12 14:02:28;;;;;;;;;0.25;0.25;;;;;;;;5052213;28;45413;-73
2022/05/12 14:04:57;;;;;;;;;0.75;0.75;;;;;;;;5044573;28;45293;-72
2022/05/12 14:07:27;;;;;;;;;1.20;0.00;;;;;;;;5053149;28;45350;-72
2022/05/12 14:09:54;;;;;;;;;1.00;1.00;;;;;;;;5059241;28;45312;-73
2022/05/12 14:12:24;;;;;;;;;1.25;1.00;;;;;;;;5049142;28;47235;-72
2022/05/12 14:20:23;;;;;;;;;0.25;0.25;;;;;;;;5057863;28;45280;-72
2022/05/12 14:22:49;;;;;;;;;0.00;0.00;;;;;;;;5057380;28;45677;-72
2022/05/12 14:25:14;;;;;;;;;1.25;0.75;;;;;;;;5058921;28;46259;-72
2022/05/12 14:27:40;;;;;;;;;1.00;1.00;;;;;;;;5048507;28;45300;-71
2022/05/12 14:30:06;;;;;;;;;1.00;1.00;;;;;;;;5058881;28;45174;-73
2022/05/12 14:32:58;;;;;;;;;0.25;0.25;;;;;;;;5048054;28;46269;-73
2022/05/12 14:35:24;;;;;;;;;1.00;1.00;;;;;;;;5053622;28;47057;-73
2022/05/12 14:37:50;;;;;;;;;1.20;0.80;;;;;;;;5053863;28;45685;-73
2022/05/12 14:40:17;;;;;;;;;1.00;1.00;;;;;;;;5057019;28;45461;-73
2022/05/12 14:42:42;;;;;;;;;0.25;0.25;;;;;;;;5052353;28;45268;-73
2022/05/12 14:45:07;;;;;;;;;2.50;1.00;;;;;;;;5058185;28;45331;-73
2022/05/12 14:47:32;;;;;;;;;1.00;1.00;;;;;;;;5055359;28;45318;-72
2022/05/12 14:49:58;;;;;;;;;2.25;1.00;;;;;;;;5057973;28;45244;-72
2022/05/12 14:52:24;;;;;;;;;6.00;3.25;;;;;;;;5055501;28;45430;-73
2022/05/12 14:54:50;;;;;;;;;1.00;1.00;;;;;;;;5057652;28;45312;-72
2022/05/12 14:57:16;;;;;;;;;1.00;1.00;;;;;;;;5056281;28;45445;-72
2022/05/12 14:59:42;;;;;;;;;0.50;0.50;;;;;;;;5057924;28;45399;-72
2022/05/12 15:02:09;;;;;;;;;1.75;0.75;;;;;;;;5055367;28;45412;-72
2022/05/12 15:04:34;;;;;;;;;0.00;0.00;;;;;;;;5046406;28;46179;-72
2022/05/12 15:07:00;;;;;;;;;1.50;1.50;;;;;;;;5050128;28;45248;-72
2022/05/12 15:09:26;;;;;;;;;1.00;1.00;;;;;;;;5057964;28;45228;-72
2022/05/12 15:11:51;;;;;;;;;1.25;1.00;;;;;;;;5054990;28;45414;-71
2022/05/12 15:14:16;;;;;;;;;0.50;0.50;;;;;;;;5057335;28;45870;-71
2022/05/12 15:16:42;;;;;;;;;1.00;0.25;;;;;;;;5052488;28;45489;-71